Jeffersonville, IN

5:08 PM EDT on October 23, 2014 (GMT -0400)
Mallard Run | Change Station
CLOSE
Current Station
Personal Weather Station
Location: Jeffersonville, IN
Elevation: 528 ft
Nearby Weather Stations

Elev 528 ft 38.33 °N, 85.72 °W | Updated 3 seconds ago

Partly Cloudy
Partly Cloudy
59.2 °F
Feels Like 59.2 °F
N
0.0
Wind Variable Wind from North
Gusts 0.0 mph

Today
High -- | Low -- °F
--% Chance of Precip.
Yesterday
High -- | Low -- °F
Precip. -- in
7:59 AM 6:54 PM
Waning Crescent, 0% visible
Pressure 30.14 in
Visibility 10.0 miles
Clouds Clear
Dew Point 41 °F
Humidity 51%
Rainfall 0.00 in
Snow Depth Not available.
UV 2 out of 12
Pollen 1.40 out of 12
Ozone Good
PM2.5 Moderate
Flu Activity Sporadic
METAR KLOU 232053Z VRB03KT 10SM CLR 16/06 A3014 RMK AO2 SLP206 T01610056 56023

More Conditions Fewer Conditions

Pressure 30.14 in
Visibility 10.0 miles
Clouds Clear
Dew Point 41 °F
Humidity 51%
Rainfall 0.00 in
Snow Depth Not available.
UV 2 out of 12
Pollen 1.40 out of 12
Ozone Good
PM2.5 Moderate
Flu Activity Sporadic
METAR KLOU 232053Z VRB03KT 10SM CLR 16/06 A3014 RMK AO2 SLP206 T01610056 56023

More Conditions Fewer Conditions

10-Day Weather Forecast

Almanac

Astronomy

Oct. 23, 2014 Rise Set
Actual Time 7:59 AM EDT 6:54 PM EDT
Civil Twilight 7:32 AM EDT 7:21 PM EDT
Nautical Twilight 7:02 AM EDT 7:52 PM EDT
Astronomical Twilight 6:31 AM EDT 8:22 PM EDT
Moon 7:39 AM EDT 6:55 PM EDT
Length of Visible Light 11h 48m
Length of Day
10h 54m
Tomorrow will be 2m 18s shorter.
Waning Crescent, 0% of the Moon is Illuminated
Today
Waning Crescent
Oct 23
New
Oct 30
First Quarter
Nov 6
Full
Nov 14
Last Quarter

Today's Extremes

State Highs State Lows

Community

WunderPhotos

Upload Photos

1,764,371 photos uploaded!

WunderBlogs® & News

By Dr. Jeff Masters
Director of Meteorology, Weather Underground
By Kari Strenfel
Meteorologist, Weather Underground
By Christopher C. Burt
Weather Historian, Weather Underground
October 23, 2014
October 23, 2014
October 23, 2014

Nearby

Air Quality

  Air Quality AQ Index Pollutant
Yesterday Good
PM10
Yesterday Good
OZONE
Current Moderate
PM2.5
Current Good
OZONE
Thursday Moderate
PM2.5
Thursday Good
OZONE
Friday Moderate
PM2.5
Friday Good
OZONE
Saturday Moderate
PM2.5
Saturday Good
OZONE
Sunday Moderate
PM2.5
Sunday Good
OZONE
Monday Moderate
PM2.5
Monday Good
OZONE

Snow Depth

Station Depth Elevation
No new snow has been reported.

Earthquake Activity

City Distance Mag. Time & Date
No recent earthquake activity has been reported nearby.
Minimum magnitude displayed is 2.5.

Coastal Water Temperatures

Place Temperature
No Stations Reporting

Nearby Weather Stations